Time;durP1;ratioP1;P1;durP2;ratioP2;P2;SDS_P1;SDS_P2;PMS_P1;PMS_P2;Temp;Humidity;BMP_temperature;BMP_pressure;BME280_temperature;BME280_humidity;BME280_pressure;Samples;Min_cycle;Max_cycle;Signal;HPM_P1;HPM_P2
2022/04/13 00:02:24;;;;;;;12.98;6.67;;;;;;;4.12;51.52;101546.45;1739845;82;25752;-59
2022/04/13 00:04:51;;;;;;;14.30;7.47;;;;;;;4.05;51.86;101542.77;1738956;82;25764;-59
2022/04/13 00:07:17;;;;;;;12.20;6.85;;;;;;;4.03;52.50;101546.45;1738770;82;27078;-59
2022/04/13 00:09:45;;;;;;;15.40;7.53;;;;;;;4.00;51.96;101551.42;1739053;82;25780;-59
2022/04/13 00:12:11;;;;;;;11.03;6.37;;;;;;;3.99;51.82;101543.52;1738814;82;27446;-59
2022/04/13 00:14:39;;;;;;;18.35;6.22;;;;;;;3.99;51.73;101545.70;1738771;82;26502;-59
2022/04/13 00:17:05;;;;;;;14.38;6.62;;;;;;;3.99;51.88;101550.18;1739199;82;25764;-58
2022/04/13 00:19:33;;;;;;;10.80;6.20;;;;;;;3.97;51.96;101549.38;1738597;82;26120;-59
2022/04/13 00:22:00;;;;;;;10.82;6.30;;;;;;;3.97;51.75;101550.27;1738853;81;26041;-59
2022/04/13 00:24:27;;;;;;;11.60;6.60;;;;;;;3.98;51.70;101548.45;1738760;82;27479;-60
2022/04/13 00:26:55;;;;;;;11.97;6.78;;;;;;;3.98;51.56;101551.99;1738734;82;25757;-60
2022/04/13 00:29:22;;;;;;;11.03;6.47;;;;;;;4.01;51.59;101550.98;1738812;82;25737;-60
2022/04/13 00:31:48;;;;;;;13.58;6.72;;;;;;;4.00;51.39;101547.44;1739179;82;27045;-59
2022/04/13 00:34:15;;;;;;;11.22;6.45;;;;;;;3.99;51.42;101547.03;1739145;82;25468;-59
2022/04/13 00:36:42;;;;;;;10.25;6.17;;;;;;;3.99;51.30;101552.36;1738669;82;27483;-59
2022/04/13 00:39:30;;;;;;;9.73;6.25;;;;;;;4.00;51.26;101549.25;1738722;82;25768;-59
2022/04/13 00:42:05;;;;;;;12.95;6.25;;;;;;;3.99;51.37;101551.51;1740149;81;25682;-59
2022/04/13 00:44:34;;;;;;;11.03;6.40;;;;;;;3.96;51.30;101551.64;1758745;81;26803;-59
2022/04/13 00:47:05;;;;;;;14.13;6.87;;;;;;;3.91;51.47;101547.88;1771039;81;26058;-59
2022/04/13 00:49:34;;;;;;;10.80;5.78;;;;;;;3.85;51.43;101549.06;1771075;80;26769;-59
2022/04/13 00:52:04;;;;;;;12.53;6.28;;;;;;;3.85;51.67;101548.18;1771024;81;25788;-59
2022/04/13 00:54:33;;;;;;;14.47;6.03;;;;;;;3.82;51.57;101550.98;1771143;81;25872;-59
2022/04/13 00:57:05;;;;;;;11.28;5.95;;;;;;;3.79;51.66;101550.66;1782047;80;26144;-59
2022/04/13 00:59:36;;;;;;;13.00;6.12;;;;;;;3.76;51.57;101541.03;1790567;79;25944;-60
2022/04/13 01:02:07;;;;;;;13.22;6.40;;;;;;;3.78;51.73;101542.28;1791684;80;27480;-59
2022/04/13 01:04:35;;;;;;;12.10;6.35;;;;;;;3.76;51.55;101545.03;1790937;80;25745;-59
2022/04/13 01:07:08;;;;;;;13.98;5.55;;;;;;;3.73;51.52;101542.50;1785597;80;25590;-60
2022/04/13 01:09:37;;;;;;;13.15;5.78;;;;;;;3.70;51.68;101537.34;1779238;80;26163;-59
2022/04/13 01:12:06;;;;;;;9.68;5.70;;;;;;;3.68;51.54;101544.53;1778717;80;25678;-59
2022/04/13 01:14:34;;;;;;;15.15;5.33;;;;;;;3.65;51.82;101540.67;1779131;80;28153;-60
2022/04/13 01:17:02;;;;;;;13.62;6.58;;;;;;;3.63;51.75;101538.55;1779000;80;25702;-59
2022/04/13 01:19:31;;;;;;;11.90;5.85;;;;;;;3.62;51.76;101539.51;1779075;80;25749;-60
2022/04/13 01:22:03;;;;;;;12.93;6.10;;;;;;;3.64;51.87;101536.77;1778927;80;26279;-59
2022/04/13 01:24:32;;;;;;;12.47;6.37;;;;;;;3.64;51.81;101538.94;1778107;80;25995;-60
2022/04/13 01:26:59;;;;;;;14.15;5.78;;;;;;;3.62;51.91;101538.17;1778922;80;28113;-59
2022/04/13 01:29:26;;;;;;;10.43;5.87;;;;;;;3.62;51.66;101542.17;1778854;80;25737;-59
2022/04/13 01:31:54;;;;;;;11.80;5.28;;;;;;;3.59;51.77;101536.98;1779399;80;25750;-59
2022/04/13 01:34:21;;;;;;;9.38;6.17;;;;;;;3.55;51.74;101534.05;1778594;80;26181;-59
2022/04/13 01:36:48;;;;;;;10.35;5.85;;;;;;;3.53;51.96;101531.95;1779015;80;25841;-59
2022/04/13 01:39:16;;;;;;;11.97;5.60;;;;;;;3.48;52.09;101535.28;1778875;80;27532;-58
2022/04/13 01:41:44;;;;;;;11.48;6.05;;;;;;;3.45;52.15;101531.82;1778612;80;25743;-59
2022/04/13 01:44:15;;;;;;;9.45;5.30;;;;;;;3.39;52.41;101533.92;1784758;79;25847;-59
2022/04/13 01:46:41;;;;;;;12.85;6.05;;;;;;;3.39;52.32;101533.92;1780703;80;26151;-59
2022/04/13 01:49:08;;;;;;;14.85;6.65;;;;;;;3.38;52.46;101534.38;1778425;79;25794;-59
2022/04/13 01:51:35;;;;;;;15.00;6.55;;;;;;;3.37;52.41;101542.44;1791664;79;27496;-60
2022/04/13 01:54:01;;;;;;;12.10;6.42;;;;;;;3.31;52.55;101532.94;1791704;80;25682;-59
2022/04/13 01:56:28;;;;;;;10.95;5.92;;;;;;;3.30;52.58;101533.87;1782932;80;25886;-59
2022/04/13 01:58:55;;;;;;;9.50;5.45;;;;;;;3.29;52.64;101537.01;1777512;80;25976;-59
2022/04/13 02:01:22;;;;;;;14.07;6.28;;;;;;;3.26;52.60;101537.62;1776999;80;26433;-60
2022/04/13 02:03:50;;;;;;;11.75;6.17;;;;;;;3.24;52.86;101535.01;1775917;80;27479;-59
2022/04/13 02:06:16;;;;;;;14.73;5.92;;;;;;;3.22;52.72;101538.67;1775792;80;25738;-59
2022/04/13 02:08:43;;;;;;;10.38;5.67;;;;;;;3.20;53.02;101539.20;1775280;80;25814;-59
2022/04/13 02:11:09;;;;;;;14.93;5.50;;;;;;;3.18;53.26;101529.98;1775712;80;25731;-59
2022/04/13 02:13:36;;;;;;;12.10;6.83;;;;;;;3.14;53.08;101535.02;1775230;80;25752;-60
2022/04/13 02:16:04;;;;;;;13.83;6.47;;;;;;;3.11;53.39;101534.70;1775584;80;28431;-60
2022/04/13 02:18:31;;;;;;;11.60;5.83;;;;;;;3.05;53.58;101534.98;1775226;80;25817;-59
2022/04/13 02:20:58;;;;;;;13.10;5.90;;;;;;;3.03;53.58;101534.66;1775286;80;25739;-59
2022/04/13 02:23:25;;;;;;;11.80;6.33;;;;;;;3.00;53.76;101535.67;1775482;80;26021;-59
2022/04/13 02:25:52;;;;;;;16.57;5.92;;;;;;;2.95;53.98;101533.66;1775602;80;25715;-60
2022/04/13 02:28:19;;;;;;;13.25;6.42;;;;;;;2.96;54.09;101540.71;1775321;80;27429;-59
2022/04/13 02:30:45;;;;;;;13.25;6.80;;;;;;;2.95;54.00;101535.88;1775149;80;25762;-59
2022/04/13 02:33:12;;;;;;;13.85;5.78;;;;;;;2.95;54.21;101529.68;1775430;80;25772;-60
2022/04/13 02:35:39;;;;;;;11.88;6.00;;;;;;;2.92;54.22;101531.13;1775325;80;25933;-59
2022/04/13 02:38:07;;;;;;;11.83;5.47;;;;;;;2.92;54.21;101537.78;1775420;80;25634;-59
2022/04/13 02:40:33;;;;;;;15.30;5.58;;;;;;;2.90;54.34;101537.01;1775324;80;27690;-59
2022/04/13 02:43:00;;;;;;;13.03;6.03;;;;;;;2.89;54.33;101537.94;1775717;80;25780;-59
2022/04/13 02:45:28;;;;;;;14.13;6.78;;;;;;;2.85;54.20;101533.22;1765475;80;25470;-59
2022/04/13 02:47:54;;;;;;;14.03;5.00;;;;;;;2.82;54.64;101528.03;1765254;81;26089;-59
2022/04/13 02:50:23;;;;;;;12.00;5.90;;;;;;;2.78;54.91;101526.45;1765233;81;25446;-59
2022/04/13 02:52:50;;;;;;;14.73;6.97;;;;;;;2.75;55.27;101526.10;1765429;81;27489;-59
2022/04/13 02:55:17;;;;;;;15.45;5.50;;;;;;;2.70;55.50;101517.48;1765389;81;25786;-59
2022/04/13 02:57:44;;;;;;;11.12;5.35;;;;;;;2.69;55.30;101521.55;1783828;80;26453;-59
2022/04/13 03:00:12;;;;;;;9.30;5.45;;;;;;;2.66;55.56;101519.86;1791720;80;26110;-59
2022/04/13 03:02:41;;;;;;;15.45;6.33;;;;;;;2.64;55.67;101521.27;1792085;80;25794;-59
2022/04/13 03:05:10;;;;;;;10.48;5.45;;;;;;;2.63;55.47;101530.16;1791684;80;27454;-59
2022/04/13 03:07:37;;;;;;;16.82;6.20;;;;;;;2.60;55.68;101521.46;1791679;80;25494;-59
2022/04/13 03:10:06;;;;;;;12.93;5.95;;;;;;;2.60;55.76;101521.46;1791550;80;25717;-59
2022/04/13 03:12:36;;;;;;;22.40;11.20;;;;;;;2.58;55.81;101521.98;1791892;80;26733;-60
2022/04/13 03:15:07;;;;;;;12.88;5.80;;;;;;;2.59;55.92;101520.61;1791583;80;25964;-59
2022/04/13 03:17:34;;;;;;;10.32;5.08;;;;;;;2.58;56.00;101524.64;1792109;80;27562;-59
2022/04/13 03:20:02;;;;;;;13.62;5.47;;;;;;;2.58;55.90;101520.21;1791393;80;25751;-59
2022/04/13 03:22:29;;;;;;;13.28;6.20;;;;;;;2.61;55.86;101526.70;1791648;80;25686;-59
2022/04/13 03:24:58;;;;;;;9.25;5.00;;;;;;;2.61;56.06;101525.84;1791494;80;28263;-59
2022/04/13 03:27:25;;;;;;;13.35;7.42;;;;;;;2.63;55.72;101520.02;1791758;80;25763;-59
2022/04/13 03:29:52;;;;;;;12.55;6.53;;;;;;;2.64;55.84;101526.58;1791685;80;28564;-59
2022/04/13 03:32:18;;;;;;;13.98;5.70;;;;;;;2.68;55.96;101523.32;1791628;80;25995;-59
2022/04/13 03:34:45;;;;;;;12.13;4.90;;;;;;;2.70;55.92;101530.77;1791580;80;25641;-59
2022/04/13 03:37:13;;;;;;;10.03;5.85;;;;;;;2.74;55.86;101525.70;1792013;80;26098;-59
2022/04/13 03:39:39;;;;;;;15.25;5.50;;;;;;;2.77;55.83;101525.58;1791988;80;25716;-59
2022/04/13 03:42:07;;;;;;;12.45;5.87;;;;;;;2.82;55.65;101524.89;1791477;80;27449;-59
2022/04/13 03:44:34;;;;;;;20.30;8.65;;;;;;;2.87;55.63;101517.20;1791780;80;25889;-59
2022/04/13 03:47:02;;;;;;;24.20;10.40;;;;;;;2.94;55.54;101518.20;1791691;79;25818;-59
2022/04/13 03:49:29;;;;;;;14.65;6.35;;;;;;;3.05;55.28;101515.05;1791804;80;26120;-59
2022/04/13 03:51:56;;;;;;;10.68;5.08;;;;;;;3.16;55.10;101519.02;1791786;80;25710;-59
2022/04/13 03:54:22;;;;;;;18.37;6.62;;;;;;;3.23;54.91;101515.14;1791793;80;27498;-59
2022/04/13 03:56:49;;;;;;;13.78;5.67;;;;;;;3.31;54.95;101515.66;1787527;80;25782;-58
2022/04/13 03:59:16;;;;;;;10.18;5.72;;;;;;;3.40;54.78;101514.38;1775697;80;25489;-59
2022/04/13 04:01:43;;;;;;;17.27;5.55;;;;;;;3.49;54.86;101521.05;1774073;80;26095;-59
2022/04/13 04:04:10;;;;;;;12.00;5.05;;;;;;;3.55;54.68;101517.64;1782603;80;25775;-59
2022/04/13 04:06:37;;;;;;;13.00;6.22;;;;;;;3.59;54.82;101523.67;1783312;79;27819;-58
2022/04/13 04:09:03;;;;;;;12.30;6.78;;;;;;;3.62;54.56;101522.21;1783019;80;25796;-60
2022/04/13 04:11:30;;;;;;;14.45;6.83;;;;;;;3.65;54.61;101519.87;1783410;80;25836;-60
2022/04/13 04:13:57;;;;;;;16.23;6.92;;;;;;;3.66;54.47;101528.25;1783198;80;26107;-60
2022/04/13 04:16:24;;;;;;;14.05;5.50;;;;;;;3.68;54.41;101524.57;1783477;80;25769;-60
2022/04/13 04:18:50;;;;;;;11.85;6.05;;;;;;;3.71;54.32;101523.11;1783218;80;27654;-60
2022/04/13 04:21:17;;;;;;;13.40;6.55;;;;;;;3.74;54.48;101531.41;1782968;80;25796;-59
2022/04/13 04:23:44;;;;;;;10.80;5.97;;;;;;;3.75;54.42;101528.66;1783287;79;25657;-59
2022/04/13 04:26:11;;;;;;;16.30;6.50;;;;;;;3.77;54.34;101533.90;1783156;79;26336;-60
2022/04/13 04:28:38;;;;;;;15.70;6.97;;;;;;;3.77;54.36;101532.56;1783301;80;25736;-60
2022/04/13 04:31:05;;;;;;;20.65;6.55;;;;;;;3.76;54.23;101533.05;1782988;80;27437;-60
2022/04/13 04:33:32;;;;;;;16.97;7.65;;;;;;;3.73;54.26;101536.33;1782982;80;25730;-59
2022/04/13 04:35:58;;;;;;;23.95;8.25;;;;;;;3.73;54.39;101536.33;1782724;80;25792;-59
2022/04/13 04:38:32;;;;;;;21.60;7.40;;;;;;;3.75;54.17;101531.32;1783361;79;26093;-59
2022/04/13 04:40:55;;;;;;;29.63;7.37;;;;;;;3.80;54.26;101527.11;1781523;80;26100;-60
2022/04/13 04:43:22;;;;;;;25.85;6.67;;;;;;;3.85;54.18;101530.88;1782993;79;27478;-60
2022/04/13 04:45:49;;;;;;;17.17;6.53;;;;;;;3.89;54.38;101531.98;1783232;79;25739;-60
2022/04/13 04:48:15;;;;;;;13.35;6.08;;;;;;;3.96;53.89;101527.23;1783150;79;26062;-60
2022/04/13 04:50:42;;;;;;;14.03;5.50;;;;;;;4.03;53.75;101531.80;1783122;79;28319;-60
2022/04/13 04:53:09;;;;;;;13.28;5.12;;;;;;;4.07;53.61;101527.58;1783102;79;25678;-60
2022/04/13 04:55:36;;;;;;;11.33;5.08;;;;;;;4.14;53.51;101531.27;1783028;80;27376;-60
2022/04/13 04:58:04;;;;;;;13.65;5.78;;;;;;;4.23;53.39;101538.31;1777553;79;25707;-60
2022/04/13 05:00:36;;;;;;;13.80;6.12;;;;;;;4.29;52.91;101538.48;1769036;81;25499;-60
2022/04/13 05:03:02;;;;;;;20.50;6.45;;;;;;;4.32;52.83;101541.45;1774436;80;26121;-60
2022/04/13 05:05:29;;;;;;;13.50;5.55;;;;;;;4.35;52.75;101550.16;1780914;80;27375;-60
2022/04/13 05:07:56;;;;;;;18.15;6.67;;;;;;;4.40;52.81;101537.94;1780790;80;28535;-60
2022/04/13 05:10:22;;;;;;;15.50;7.85;;;;;;;4.45;52.76;101525.27;1780913;80;25673;-59
2022/04/13 05:12:51;;;;;;;18.70;5.70;;;;;;;4.51;52.55;101524.09;1780789;80;25795;-59
2022/04/13 05:15:18;;;;;;;19.50;6.17;;;;;;;4.56;52.47;101524.70;1780373;80;26147;-59
2022/04/13 05:17:45;;;;;;;13.70;6.15;;;;;;;4.64;52.47;101529.66;1780847;80;27236;-59
2022/04/13 05:20:13;;;;;;;15.98;5.35;;;;;;;4.72;52.34;101527.91;1780661;79;27513;-59
2022/04/13 05:22:40;;;;;;;19.42;6.92;;;;;;;4.78;52.11;101524.45;1780541;80;25817;-59
2022/04/13 05:25:12;;;;;;;12.50;5.22;;;;;;;4.89;51.96;101519.88;1780823;80;25727;-59
2022/04/13 05:27:39;;;;;;;17.20;5.58;;;;;;;4.97;51.64;101501.70;1780095;79;26118;-59
2022/04/13 05:30:09;;;;;;;13.95;5.33;;;;;;;5.08;51.57;101509.58;1780828;80;25909;-60
2022/04/13 05:32:58;;;;;;;14.15;4.80;;;;;;;5.16;51.44;101514.90;1780735;80;27470;-59
2022/04/13 05:35:21;;;;;;;18.27;5.17;;;;;;;5.25;50.73;101497.52;1779847;80;25929;-59
2022/04/13 05:37:47;;;;;;;16.10;5.35;;;;;;;5.35;50.75;101505.89;1780856;80;25522;-59
2022/04/13 05:40:14;;;;;;;15.65;4.95;;;;;;;5.45;50.97;101506.23;1780795;80;26296;-59
2022/04/13 05:42:41;;;;;;;12.43;5.22;;;;;;;5.54;50.72;101507.55;1781128;80;25946;-59
2022/04/13 05:45:10;;;;;;;17.07;5.40;;;;;;;5.62;50.54;101506.16;1770860;80;27709;-59
2022/04/13 05:47:38;;;;;;;9.63;4.70;;;;;;;5.73;50.05;101494.90;1769018;81;25823;-59
2022/04/13 05:50:07;;;;;;;8.58;4.50;;;;;;;5.81;49.61;101497.11;1768959;80;25806;-59
2022/04/13 05:52:34;;;;;;;11.48;4.75;;;;;;;5.88;49.33;101514.50;1769037;81;27073;-59
2022/04/13 05:55:01;;;;;;;14.10;4.92;;;;;;;5.93;49.33;101504.44;1769287;81;25805;-59
2022/04/13 05:57:28;;;;;;;9.93;5.15;;;;;;;6.00;49.17;101513.00;1776089;80;27462;-60
2022/04/13 05:59:55;;;;;;;13.85;4.90;;;;;;;6.07;49.13;101503.67;1791527;80;25675;-60
2022/04/13 06:02:22;;;;;;;16.05;5.37;;;;;;;6.13;48.55;101497.57;1791447;79;25703;-60
2022/04/13 06:04:49;;;;;;;10.48;4.35;;;;;;;6.16;48.64;101506.75;1790105;79;26093;-60
2022/04/13 06:07:17;;;;;;;16.62;5.00;;;;;;;6.21;48.47;101501.53;1789794;80;25850;-60
2022/04/13 06:09:43;;;;;;;15.80;4.70;;;;;;;6.26;48.61;101511.46;1789856;80;27674;-59
2022/04/13 06:12:11;;;;;;;13.35;4.92;;;;;;;6.28;48.59;101507.84;1789906;80;25940;-59
2022/04/13 06:14:37;;;;;;;12.47;5.40;;;;;;;6.31;48.55;101507.19;1790155;80;25742;-60
2022/04/13 06:17:04;;;;;;;16.30;6.00;;;;;;;6.40;49.09;101503.12;1790000;79;26109;-59
2022/04/13 06:19:31;;;;;;;14.90;4.53;;;;;;;6.48;49.03;101502.19;1790110;79;25735;-60
2022/04/13 06:21:58;;;;;;;9.68;4.35;;;;;;;6.61;48.66;101501.43;1790036;80;27596;-59
2022/04/13 06:24:25;;;;;;;20.72;4.92;;;;;;;6.68;48.35;101490.28;1790024;79;26125;-59
2022/04/13 06:26:52;;;;;;;17.85;4.92;;;;;;;6.75;48.02;101508.16;1789931;80;25504;-59
2022/04/13 06:29:19;;;;;;;14.85;4.55;;;;;;;6.81;48.42;101494.89;1789901;80;26079;-59
2022/04/13 06:31:46;;;;;;;11.68;4.90;;;;;;;6.88;48.26;101501.58;1790091;79;25258;-60
2022/04/13 06:34:12;;;;;;;13.53;4.33;;;;;;;6.98;48.06;101501.41;1789922;79;27469;-59
2022/04/13 06:36:39;;;;;;;12.47;5.67;;;;;;;7.05;48.37;101503.20;1790006;79;25547;-61
2022/04/13 06:39:06;;;;;;;13.70;4.55;;;;;;;7.12;48.09;101499.20;1789828;80;25783;-60
2022/04/13 06:41:33;;;;;;;17.73;4.85;;;;;;;7.23;47.99;101510.57;1790133;79;26925;-59
2022/04/13 06:44:00;;;;;;;12.03;3.85;;;;;;;7.35;47.69;101511.11;1787370;80;25946;-59
2022/04/13 06:46:26;;;;;;;12.30;4.12;;;;;;;7.38;46.78;101510.09;1782480;80;26974;-59
2022/04/13 06:48:53;;;;;;;11.05;4.80;;;;;;;7.45;46.19;101507.86;1782405;80;26005;-59
2022/04/13 06:51:20;;;;;;;8.78;3.70;;;;;;;7.52;46.80;101509.21;1782458;80;25643;-60
2022/04/13 06:53:47;;;;;;;12.37;3.92;;;;;;;7.61;46.85;101505.94;1782578;80;26092;-61
2022/04/13 06:56:14;;;;;;;14.80;3.85;;;;;;;7.76;45.49;101506.73;1782428;80;25720;-61
2022/04/13 06:58:42;;;;;;;6.95;3.02;;;;;;;7.89;44.97;101506.80;1772734;80;27444;-60
2022/04/13 07:01:10;;;;;;;15.10;3.72;;;;;;;7.96;44.68;101506.80;1770881;81;25782;-60
2022/04/13 07:03:36;;;;;;;12.13;3.55;;;;;;;8.03;45.17;101504.55;1748282;81;25801;-59
2022/04/13 07:06:03;;;;;;;6.37;3.35;;;;;;;8.13;44.92;101506.16;1738769;82;26268;-59
2022/04/13 07:08:30;;;;;;;7.50;3.47;;;;;;;8.23;44.62;101510.41;1738745;81;25776;-59
2022/04/13 07:10:59;;;;;;;9.88;3.22;;;;;;;8.30;44.13;101504.55;1738879;81;28159;-61
2022/04/13 07:13:25;;;;;;;17.90;3.60;;;;;;;8.35;43.01;101512.27;1738647;82;25807;-62
2022/04/13 07:15:52;;;;;;;11.97;3.33;;;;;;;8.47;43.21;101494.52;1738959;82;25788;-61
2022/04/13 07:18:20;;;;;;;8.65;3.45;;;;;;;8.57;43.26;101493.40;1738901;82;26110;-60
2022/04/13 07:20:46;;;;;;;7.40;3.17;;;;;;;8.65;43.36;101497.75;1738800;82;25793;-59
2022/04/13 07:23:13;;;;;;;9.33;3.67;;;;;;;8.73;42.78;101493.20;1738621;81;29650;-57
2022/04/13 07:25:40;;;;;;;5.65;2.58;;;;;;;8.78;41.24;101492.42;1738683;81;25779;-59
2022/04/13 07:28:07;;;;;;;10.75;3.75;;;;;;;8.82;40.96;101479.66;1738912;81;25803;-61
2022/04/13 07:30:34;;;;;;;8.65;3.08;;;;;;;8.91;41.10;101482.53;1738799;82;26438;-60
2022/04/13 07:33:04;;;;;;;13.20;3.90;;;;;;;9.02;40.35;101483.61;1738797;82;27316;-58
2022/04/13 07:35:32;;;;;;;10.93;3.33;;;;;;;9.12;39.22;101477.09;1739631;81;28314;-59
2022/04/13 07:37:59;;;;;;;12.00;3.17;;;;;;;9.19;39.50;101473.87;1740686;82;25743;-58
2022/04/13 07:40:26;;;;;;;12.35;3.52;;;;;;;9.29;39.53;101461.13;1739643;82;25733;-58
2022/04/13 07:42:53;;;;;;;18.55;2.65;;;;;;;9.42;39.61;101458.41;1739183;82;27052;-58
2022/04/13 07:45:20;;;;;;;5.37;3.35;;;;;;;9.52;39.48;101460.30;1768831;81;25786;-59
2022/04/13 07:47:49;;;;;;;7.95;1.85;;;;;;;9.66;37.92;101459.28;1768757;81;27470;-59
2022/04/13 07:50:16;;;;;;;4.50;2.10;;;;;;;9.89;37.51;101459.42;1740524;82;25788;-59
2022/04/13 07:52:43;;;;;;;8.35;2.45;;;;;;;10.03;36.54;101451.16;1740480;81;25729;-59
2022/04/13 07:55:11;;;;;;;7.45;2.08;;;;;;;10.15;36.50;101443.98;1740546;81;27013;-61
2022/04/13 07:57:39;;;;;;;4.47;1.50;;;;;;;10.26;36.29;101451.73;1740382;80;26057;-58
2022/04/13 08:00:12;;;;;;;7.30;2.98;;;;;;;10.44;35.51;101446.31;1699928;83;27476;-59
2022/04/13 08:02:41;;;;;;;7.87;2.33;;;;;;;10.53;34.41;101421.89;1691228;83;25745;-60
2022/04/13 08:05:15;;;;;;;7.10;1.80;;;;;;;10.65;34.73;101438.39;1659894;86;26026;-60
2022/04/13 08:07:42;;;;;;;12.77;2.00;;;;;;;10.69;34.72;101430.94;1662969;84;26049;-60
2022/04/13 08:10:10;;;;;;;5.80;1.55;;;;;;;10.77;34.67;101438.41;1669987;85;25750;-60
2022/04/13 08:12:39;;;;;;;8.60;1.70;;;;;;;10.86;34.26;101439.50;1690829;84;27478;-59
2022/04/13 08:15:08;;;;;;;9.03;1.30;;;;;;;10.93;33.88;101437.56;1740736;82;25481;-60
2022/04/13 08:17:38;;;;;;;7.85;1.52;;;;;;;11.11;33.43;101422.25;1740304;81;25636;-61
2022/04/13 08:20:11;;;;;;;9.20;1.42;;;;;;;11.39;32.97;101434.83;1740301;81;26168;-60
2022/04/13 08:22:39;;;;;;;12.90;1.70;;;;;;;11.47;32.68;101425.62;1739918;82;25856;-60
2022/04/13 08:25:08;;;;;;;5.92;1.70;;;;;;;11.61;32.43;101428.53;1722240;82;27516;-60
2022/04/13 08:27:34;;;;;;;8.43;2.00;;;;;;;11.66;32.91;101426.30;1713339;82;25842;-61
2022/04/13 08:30:01;;;;;;;7.75;1.45;;;;;;;11.76;32.48;101421.02;1709520;83;25810;-61
2022/04/13 08:32:28;;;;;;;8.00;1.12;;;;;;;11.86;32.33;101418.39;1709746;83;27220;-60
2022/04/13 08:34:55;;;;;;;8.73;1.22;;;;;;;12.04;30.96;101414.18;1709514;83;25639;-59
2022/04/13 08:37:26;;;;;;;3.77;1.00;;;;;;;12.17;30.40;101403.71;1733175;82;27474;-61
2022/04/13 08:39:54;;;;;;;3.60;1.25;;;;;;;12.32;30.32;101402.89;1740196;82;25546;-59
2022/04/13 08:42:49;;;;;;;3.60;1.17;;;;;;;12.42;30.63;101423.17;1740593;81;25822;-58
2022/04/13 08:45:23;;;;;;;4.33;0.90;;;;;;;12.57;29.70;101392.66;1768068;81;26597;-60
2022/04/13 08:48:00;;;;;;;6.17;1.05;;;;;;;12.69;29.17;101401.02;1752602;81;25759;-59
2022/04/13 08:50:30;;;;;;;4.72;1.52;;;;;;;12.76;29.32;101398.16;1709102;83;27507;-58
2022/04/13 08:53:02;;;;;;;2.95;0.95;;;;;;;12.83;29.37;101395.27;1709453;83;25685;-60
2022/04/13 08:55:31;;;;;;;5.50;1.20;;;;;;;12.98;29.45;101398.94;1709504;83;25741;-60
2022/04/13 08:58:15;;;;;;;8.45;1.30;;;;;;;13.10;29.13;101391.10;1725490;81;26268;-60
2022/04/13 09:00:48;;;;;;;9.15;1.30;;;;;;;13.24;28.87;101369.59;1761096;80;25719;-60
2022/04/13 09:03:36;;;;;;;17.57;1.80;;;;;;;13.39;28.67;101365.16;1768028;80;27608;-60
2022/04/13 09:06:04;;;;;;;10.63;3.12;;;;;;;13.53;28.78;101390.92;1772352;80;25775;-60
2022/04/13 09:08:53;;;;;;;10.50;2.42;;;;;;;13.46;28.89;101374.41;1771771;80;25765;-60
2022/04/13 09:11:22;;;;;;;11.03;1.52;;;;;;;13.48;29.18;101368.89;1771015;81;26175;-60
2022/04/13 09:13:52;;;;;;;13.50;1.92;;;;;;;13.70;29.35;101367.77;1771310;80;26183;-59
2022/04/13 09:16:19;;;;;;;44.88;4.22;;;;;;;13.77;29.10;101355.37;1771039;80;27455;-59
2022/04/13 09:18:47;;;;;;;7.22;1.42;;;;;;;13.88;27.56;101355.23;1770798;80;25771;-62
2022/04/13 09:21:20;;;;;;;10.63;1.55;;;;;;;13.97;27.60;101373.78;1771495;80;25699;-61
2022/04/13 09:23:47;;;;;;;13.22;1.60;;;;;;;14.38;28.11;101336.55;1773112;79;28580;-61
2022/04/13 09:26:19;;;;;;;8.15;1.22;;;;;;;14.82;28.11;101362.20;1772739;79;25658;-60
2022/04/13 09:28:46;;;;;;;17.32;1.30;;;;;;;15.04;26.01;101356.88;1772061;80;27450;-59
2022/04/13 09:31:13;;;;;;;15.95;1.50;;;;;;;15.47;25.74;101351.73;1771988;80;25747;-59
2022/04/13 09:33:40;;;;;;;17.27;1.40;;;;;;;16.06;25.41;101344.48;1771246;80;26422;-60
2022/04/13 09:36:07;;;;;;;19.50;1.80;;;;;;;16.79;25.28;101345.94;1770951;81;26113;-60
2022/04/13 09:38:35;;;;;;;6.15;2.10;;;;;;;17.25;23.63;101359.19;1771074;81;26162;-60
2022/04/13 09:41:12;;;;;;;9.80;1.02;;;;;;;17.83;24.26;101335.63;1770811;81;27465;-60
2022/04/13 09:43:39;;;;;;;27.65;1.82;;;;;;;18.36;23.24;101331.16;1768959;80;25948;-60
2022/04/13 09:46:06;;;;;;;50.08;4.30;;;;;;;18.96;21.20;101325.36;1765240;80;26788;-60
2022/04/13 09:48:34;;;;;;;38.15;2.72;;;;;;;18.88;19.93;101324.84;1770934;81;26107;-60
2022/04/13 09:51:03;;;;;;;29.15;1.75;;;;;;;17.96;20.43;101322.06;1771063;81;25739;-60
2022/04/13 09:53:31;;;;;;;19.48;1.92;;;;;;;17.39;21.87;101333.74;1771343;80;28285;-59
2022/04/13 09:55:59;;;;;;;26.62;1.40;;;;;;;17.10;21.37;101334.51;1753473;81;25825;-59
2022/04/13 09:58:33;;;;;;;36.38;1.98;;;;;;;16.62;21.76;101324.63;1774927;80;25858;-60
2022/04/13 10:01:02;;;;;;;21.65;2.15;;;;;;;16.23;22.31;101331.86;1783130;79;26291;-59
2022/04/13 10:03:29;;;;;;;19.10;1.32;;;;;;;15.93;22.83;101338.95;1782142;80;25760;-60
2022/04/13 10:05:58;;;;;;;17.52;1.70;;;;;;;15.88;23.07;101331.80;1781390;80;29718;-60
2022/04/13 10:08:30;;;;;;;24.18;1.70;;;;;;;16.02;22.80;101331.74;1741475;82;25748;-59
2022/04/13 10:10:59;;;;;;;27.58;1.67;;;;;;;15.87;22.66;101331.97;1780825;80;25797;-61
2022/04/13 10:13:43;;;;;;;21.33;1.45;;;;;;;15.83;23.02;101331.38;1781618;80;27037;-60
2022/04/13 10:16:13;;;;;;;12.50;1.70;;;;;;;15.92;23.14;101328.27;1781409;80;25929;-60
2022/04/13 10:18:58;;;;;;;20.97;1.37;;;;;;;15.80;23.15;101329.00;1781363;80;27435;-60
2022/04/13 10:21:51;;;;;;;13.00;1.82;;;;;;;15.84;23.41;101312.77;1776006;80;25802;-60
2022/04/13 10:24:37;;;;;;;29.25;2.50;;;;;;;15.77;23.37;101312.53;1783362;79;25714;-60
2022/04/13 10:27:09;;;;;;;36.63;1.85;;;;;;;15.75;23.65;101315.91;1750930;81;26779;-60
2022/04/13 10:29:39;;;;;;;29.37;1.67;;;;;;;15.52;23.65;101315.53;1750901;81;25786;-59
2022/04/13 10:32:13;;;;;;;31.60;2.42;;;;;;;15.50;23.51;101324.31;1782999;80;27530;-60
2022/04/13 10:34:48;;;;;;;22.65;1.98;;;;;;;15.55;23.40;101331.98;1750871;81;25655;-61
2022/04/13 10:37:17;;;;;;;;;;;;;;;15.62;22.35;101321.73;1783787;79;25759;-60
2022/04/13 10:39:46;;;;;;;25.08;2.77;;;;;;;15.62;22.78;101329.86;1781696;80;26084;-60
2022/04/13 10:42:18;;;;;;;37.48;1.82;;;;;;;15.55;22.23;101330.62;1780902;80;25747;-60
2022/04/13 10:45:05;;;;;;;31.43;2.00;;;;;;;15.54;21.67;101343.36;1776479;80;27491;-60
2022/04/13 10:47:56;;;;;;;35.83;2.12;;;;;;;15.40;22.50;101333.89;1750539;80;25891;-60
2022/04/13 10:50:40;;;;;;;25.00;2.00;;;;;;;15.32;23.00;101340.59;1779346;79;25726;-60
2022/04/13 10:53:22;;;;;;;;;;;;;;;15.34;22.79;101325.88;1785971;79;26133;-60
2022/04/13 10:56:05;;;;;;;14.43;1.20;;;;;;;15.27;22.69;101336.98;1782499;80;25669;-59
2022/04/13 10:59:03;;;;;;;11.22;1.20;;;;;;;15.18;23.14;101337.91;1781522;79;27654;-60
2022/04/13 11:01:53;;;;;;;8.43;1.12;;;;;;;15.15;23.03;101332.78;1783218;79;25729;-60
2022/04/13 11:04:22;;;;;;;13.65;1.95;;;;;;;15.07;22.60;101325.91;1777137;80;25496;-59
2022/04/13 11:06:50;;;;;;;23.45;1.85;;;;;;;14.90;22.72;101332.50;1783251;80;26073;-59
2022/04/13 11:09:26;;;;;;;20.20;1.62;;;;;;;14.81;23.00;101324.77;1783268;80;25787;-59
2022/04/13 11:11:57;;;;;;;21.10;1.70;;;;;;;14.84;23.31;101329.89;1783354;80;28148;-60
2022/04/13 11:14:27;;;;;;;14.20;1.42;;;;;;;14.88;23.56;101322.83;1765661;80;25784;-58
2022/04/13 11:17:14;;;;;;;25.12;1.65;;;;;;;14.95;23.41;101319.86;1783248;79;25654;-59
2022/04/13 11:19:43;;;;;;;34.18;1.92;;;;;;;14.97;23.37;101321.92;1751179;81;26129;-59
2022/04/13 11:22:16;;;;;;;21.35;1.70;;;;;;;15.03;23.18;101317.24;1783417;80;25754;-59
2022/04/13 11:24:51;;;;;;;33.08;1.92;;;;;;;15.01;23.10;101320.11;1751058;81;27541;-60
2022/04/13 11:27:18;;;;;;;21.45;1.62;;;;;;;14.91;22.82;101310.31;1783388;79;25866;-60
2022/04/13 11:30:04;;;;;;;32.45;2.33;;;;;;;14.90;23.33;101309.48;1751382;81;25700;-60
2022/04/13 11:32:36;;;;;;;57.35;2.77;;;;;;;14.88;22.67;101306.58;1751250;81;25764;-59
2022/04/13 11:35:05;;;;;;;39.92;2.22;;;;;;;14.92;23.19;101325.57;1783167;80;25665;-60